createdAt,value
2018-06-03T00:00:31.456Z,11.50
2018-06-03T00:03:02.050Z,10.37
2018-06-03T00:05:36.595Z,15.80
2018-06-03T00:08:10.311Z,10.50
2018-06-03T00:10:42.753Z,12.03
2018-06-03T00:13:14.830Z,12.27
2018-06-03T00:15:48.044Z,13.93
2018-06-03T00:18:20.120Z,16.47
2018-06-03T00:21:03.238Z,20.13
2018-06-03T00:23:34.177Z,15.10
2018-06-03T00:26:07.227Z,14.60
2018-06-03T00:28:41.143Z,14.70
2018-06-03T00:31:13.190Z,15.63
2018-06-03T00:33:44.704Z,15.13
2018-06-03T00:36:53.010Z,20.47
2018-06-03T00:39:31.944Z,20.60
2018-06-03T00:42:04.936Z,19.30
2018-06-03T00:44:39.039Z,18.13
2018-06-03T00:47:11.239Z,18.40
2018-06-03T00:49:47.543Z,21.27
2018-06-03T00:52:26.206Z,18.30
2018-06-03T00:55:02.676Z,21.17
2018-06-03T00:57:35.391Z,21.97
2018-06-03T01:00:07.786Z,25.67
2018-06-03T01:02:40.630Z,25.83
2018-06-03T01:05:14.476Z,27.70
2018-06-03T01:07:48.291Z,20.80
2018-06-03T01:10:22.536Z,21.60
2018-06-03T01:12:56.514Z,23.40
2018-06-03T01:15:32.502Z,25.50
2018-06-03T01:18:07.555Z,23.17
2018-06-03T01:20:47.457Z,24.10
2018-06-03T01:23:28.330Z,32.50
2018-06-03T01:26:04.098Z,29.00
2018-06-03T01:28:34.571Z,22.83
2018-06-03T01:31:07.752Z,24.60
2018-06-03T01:33:48.914Z,25.60
2018-06-03T01:36:24.916Z,21.57
2018-06-03T01:38:57.672Z,22.53
2018-06-03T01:41:37.196Z,25.00
2018-06-03T01:44:08.513Z,26.60
2018-06-03T01:46:47.881Z,27.27
2018-06-03T01:49:23.755Z,25.43
2018-06-03T01:52:00.533Z,22.90
2018-06-03T01:57:23.250Z,25.53
2018-06-03T01:59:55.143Z,27.73
2018-06-03T02:02:31.531Z,27.17
2018-06-03T02:05:04.100Z,27.73
2018-06-03T02:07:41.479Z,28.80
2018-06-03T02:10:15.206Z,29.60
2018-06-03T02:12:50.958Z,29.60
2018-06-03T02:15:23.127Z,31.10
2018-06-03T02:17:59.542Z,33.73
2018-06-03T02:20:43.439Z,29.67
2018-06-03T02:23:21.524Z,31.30
2018-06-03T02:25:56.355Z,35.40
2018-06-03T02:28:28.752Z,34.80
2018-06-03T02:31:04.163Z,32.93
2018-06-03T02:33:36.854Z,33.73
2018-06-03T02:36:11.858Z,33.43
2018-06-03T02:38:46.965Z,29.40
2018-06-03T02:41:20.464Z,29.50
2018-06-03T02:43:54.070Z,32.13
2018-06-03T02:46:25.758Z,32.93
2018-06-03T02:49:11.099Z,35.07
2018-06-03T02:51:48.422Z,39.17
2018-06-03T02:54:23.010Z,35.33
2018-06-03T02:56:58.259Z,36.77
2018-06-03T02:59:32.095Z,33.20
2018-06-03T03:02:07.339Z,35.70
2018-06-03T03:04:48.267Z,32.17
2018-06-03T03:07:33.346Z,33.70
2018-06-03T03:10:11.621Z,36.23
2018-06-03T03:12:48.060Z,35.97
2018-06-03T03:15:22.030Z,37.87
2018-06-03T03:17:57.415Z,36.30
2018-06-03T03:20:29.365Z,33.50
2018-06-03T03:25:48.258Z,32.43
2018-06-03T03:28:22.227Z,38.10
2018-06-03T03:31:00.541Z,36.47
2018-06-03T03:33:35.880Z,30.40
2018-06-03T03:36:10.887Z,30.27
2018-06-03T03:38:47.735Z,31.77
2018-06-03T03:41:20.417Z,29.53
2018-06-03T03:44:03.675Z,26.70
2018-06-03T03:46:41.036Z,27.03
2018-06-03T03:49:15.253Z,26.63
2018-06-03T03:51:47.446Z,30.13
2018-06-03T03:54:34.262Z,27.00
2018-06-03T03:57:13.318Z,23.57
2018-06-03T03:59:47.030Z,25.17
2018-06-03T04:02:24.932Z,23.10
2018-06-03T04:05:04.165Z,27.20
2018-06-03T04:07:39.452Z,22.97
2018-06-03T04:10:15.945Z,22.70
2018-06-03T04:12:48.932Z,20.17
2018-06-03T04:15:37.047Z,23.53
2018-06-03T04:18:16.754Z,22.73
2018-06-03T04:20:50.190Z,21.87
2018-06-03T04:23:30.200Z,20.83
2018-06-03T04:26:03.910Z,24.73
2018-06-03T04:28:38.677Z,25.83
2018-06-03T04:31:19.511Z,23.60
2018-06-03T04:33:58.439Z,20.87
2018-06-03T04:39:21.450Z,22.47
2018-06-03T04:41:56.076Z,18.63
2018-06-03T04:44:32.407Z,18.03
2018-06-03T04:47:13.065Z,17.70
2018-06-03T04:49:51.592Z,17.57
2018-06-03T04:52:28.665Z,15.97
2018-06-03T04:57:42.163Z,17.80
2018-06-03T05:00:19.593Z,19.30
2018-06-03T05:03:00.257Z,17.47
2018-06-03T05:05:53.437Z,19.93
2018-06-03T05:08:32.030Z,23.80
2018-06-03T05:11:15.462Z,15.30
2018-06-03T05:13:51.855Z,16.80
2018-06-03T05:16:33.255Z,18.40
2018-06-03T05:19:10.019Z,18.63
2018-06-03T05:21:46.382Z,17.40
2018-06-03T05:24:22.749Z,17.63
2018-06-03T05:26:55.643Z,20.20
2018-06-03T05:29:38.400Z,19.53
2018-06-03T05:32:11.978Z,19.40
2018-06-03T05:34:45.562Z,18.00
2018-06-03T05:37:25.480Z,23.10
2018-06-03T05:39:59.669Z,21.53
2018-06-03T05:42:33.778Z,18.97
2018-06-03T05:45:09.051Z,24.63
2018-06-03T05:47:47.612Z,24.20
2018-06-03T05:50:25.678Z,24.17
2018-06-03T05:53:03.481Z,24.70
2018-06-03T05:55:39.442Z,27.43
2018-06-03T06:00:58.006Z,24.93
2018-06-03T06:03:30.709Z,25.40
2018-06-03T06:06:04.512Z,26.23
2018-06-03T06:08:40.509Z,24.17
2018-06-03T06:11:14.127Z,35.10
2018-06-03T06:13:45.988Z,27.00
2018-06-03T06:16:20.789Z,25.67
2018-06-03T06:18:52.932Z,28.03
2018-06-03T06:21:25.258Z,26.33
2018-06-03T06:23:56.989Z,24.77
2018-06-03T06:26:28.673Z,26.80
2018-06-03T06:29:02.732Z,25.67
2018-06-03T06:31:38.745Z,24.47
2018-06-03T06:34:10.677Z,26.20
2018-06-03T06:36:44.641Z,27.00
2018-06-03T06:39:21.008Z,28.93
2018-06-03T06:41:56.941Z,26.77
2018-06-03T06:44:29.154Z,24.40
2018-06-03T06:47:03.658Z,27.77
2018-06-03T06:49:42.400Z,25.40
2018-06-03T06:52:21.434Z,22.20
2018-06-03T06:54:57.415Z,31.53
2018-06-03T07:00:10.772Z,27.70
2018-06-03T07:02:47.341Z,22.87
2018-06-03T07:05:19.818Z,26.07
2018-06-03T07:07:58.579Z,31.63
2018-06-03T07:10:34.155Z,28.50
2018-06-03T07:13:06.804Z,29.03
2018-06-03T07:15:40.338Z,30.20
2018-06-03T07:18:11.338Z,32.13
2018-06-03T07:20:44.572Z,27.90
2018-06-03T07:23:16.473Z,27.33
2018-06-03T07:25:49.816Z,29.90
2018-06-03T07:28:21.235Z,29.87
2018-06-03T07:30:58.042Z,26.23
2018-06-03T07:33:31.253Z,29.00
2018-06-03T07:36:03.883Z,29.70
2018-06-03T07:38:38.646Z,26.70
2018-06-03T07:41:16.552Z,26.40
2018-06-03T07:43:56.500Z,28.87
2018-06-03T07:46:30.910Z,32.63
2018-06-03T07:49:04.131Z,32.30
2018-06-03T07:51:39.770Z,29.03
2018-06-03T07:54:22.087Z,37.90
2018-06-03T07:56:56.365Z,28.60
2018-06-03T07:59:32.562Z,27.90
2018-06-03T08:02:10.610Z,29.27
2018-06-03T08:04:40.639Z,28.90
2018-06-03T08:07:08.530Z,27.60
2018-06-03T08:09:36.404Z,30.50
2018-06-03T08:12:04.692Z,25.20
2018-06-03T08:14:32.500Z,23.13
2018-06-03T08:17:00.456Z,21.73
2018-06-03T08:19:28.255Z,35.00
2018-06-03T08:21:56.369Z,23.50
2018-06-03T08:24:24.117Z,21.10
2018-06-03T08:26:51.900Z,22.37
2018-06-03T08:29:19.680Z,19.73
2018-06-03T08:31:47.520Z,20.83
2018-06-03T08:34:15.444Z,21.60
2018-06-03T08:36:43.309Z,24.93
2018-06-03T08:39:11.310Z,19.70
2018-06-03T08:41:39.219Z,17.53
2018-06-03T08:44:07.444Z,18.10
2018-06-03T08:46:35.462Z,19.43
2018-06-03T08:49:03.321Z,16.30
2018-06-03T08:51:31.266Z,18.27
2018-06-03T08:53:59.297Z,15.07
2018-06-03T08:56:27.107Z,17.13
2018-06-03T08:58:55.060Z,15.97
2018-06-03T09:01:22.975Z,16.37
2018-06-03T09:03:50.861Z,15.53
2018-06-03T09:06:18.691Z,15.73
2018-06-03T09:08:46.571Z,16.60
2018-06-03T09:11:14.353Z,14.13
2018-06-03T09:13:42.214Z,15.90
2018-06-03T09:16:10.029Z,15.10
2018-06-03T09:18:37.863Z,11.73
2018-06-03T09:21:05.764Z,15.40
2018-06-03T09:23:33.489Z,14.53
2018-06-03T09:26:01.285Z,15.53
2018-06-03T09:28:29.114Z,13.87
2018-06-03T09:31:02.342Z,17.00
2018-06-03T09:33:30.129Z,16.17
2018-06-03T09:35:57.920Z,16.03
2018-06-03T09:38:25.686Z,16.37
2018-06-03T09:40:53.498Z,14.70
2018-06-03T09:43:21.270Z,16.40
2018-06-03T09:45:49.254Z,16.90
2018-06-03T09:48:16.980Z,16.13
2018-06-03T09:50:44.748Z,16.20
2018-06-03T09:53:12.541Z,16.50
2018-06-03T09:55:40.237Z,18.23
2018-06-03T09:58:07.996Z,16.97
2018-06-03T10:00:35.755Z,16.73
2018-06-03T10:03:03.512Z,14.73
2018-06-03T10:05:31.139Z,14.37
2018-06-03T10:07:58.878Z,16.53
2018-06-03T10:10:26.640Z,18.37
2018-06-03T10:12:54.393Z,16.27
2018-06-03T10:15:22.132Z,16.40
2018-06-03T10:17:49.924Z,18.57
2018-06-03T10:20:17.659Z,17.03
2018-06-03T10:22:45.430Z,19.40
2018-06-03T10:25:13.234Z,16.87
2018-06-03T10:27:41.001Z,17.80
2018-06-03T10:30:08.756Z,18.30
2018-06-03T10:32:36.536Z,16.50
2018-06-03T10:35:04.353Z,15.77
2018-06-03T10:37:32.073Z,15.37
2018-06-03T10:39:59.911Z,13.73
2018-06-03T10:42:27.519Z,15.40
2018-06-03T10:44:55.308Z,15.80
2018-06-03T10:47:23.403Z,15.33
2018-06-03T10:49:51.157Z,17.00
2018-06-03T10:52:18.869Z,15.90
2018-06-03T10:54:46.592Z,15.90
2018-06-03T10:57:14.297Z,15.07
2018-06-03T10:59:42.033Z,14.17
2018-06-03T11:02:09.764Z,14.63
2018-06-03T11:04:37.340Z,15.00
2018-06-03T11:07:05.060Z,13.47
2018-06-03T11:09:32.973Z,13.67
2018-06-03T11:12:00.767Z,13.60
2018-06-03T11:14:28.494Z,13.70
2018-06-03T11:16:56.185Z,14.03
2018-06-03T11:19:23.901Z,13.13
2018-06-03T11:21:51.621Z,14.90
2018-06-03T11:24:19.308Z,13.50
2018-06-03T11:26:47.009Z,17.03
2018-06-03T11:29:14.760Z,18.13
2018-06-03T11:31:42.469Z,17.40
2018-06-03T11:34:10.169Z,17.40
2018-06-03T11:36:37.783Z,16.90
2018-06-03T11:39:07.684Z,18.00
2018-06-03T11:41:35.752Z,19.47
2018-06-03T11:44:03.754Z,18.63
2018-06-03T11:46:31.505Z,21.27
2018-06-03T11:48:59.276Z,18.77
2018-06-03T11:51:26.990Z,17.37
2018-06-03T11:53:54.738Z,19.37
2018-06-03T11:56:27.313Z,17.10
2018-06-03T11:59:05.178Z,16.47
2018-06-03T12:01:32.892Z,38.97
2018-06-03T12:04:00.471Z,23.43
2018-06-03T12:06:28.192Z,21.30
2018-06-03T12:08:55.967Z,21.10
2018-06-03T12:11:23.720Z,27.60
2018-06-03T12:13:51.453Z,18.33
2018-06-03T12:16:19.209Z,35.27
2018-06-03T12:18:46.957Z,22.63
2018-06-03T12:21:14.658Z,18.63
2018-06-03T12:23:42.696Z,21.63
2018-06-03T12:26:10.445Z,26.17
2018-06-03T12:28:38.272Z,34.40
2018-06-03T12:31:05.944Z,20.77
2018-06-03T12:33:33.668Z,18.27
2018-06-03T12:36:01.404Z,19.23
2018-06-03T12:38:29.148Z,18.10
2018-06-03T12:40:56.888Z,17.13
2018-06-03T12:43:24.632Z,19.00
2018-06-03T12:45:52.377Z,18.43
2018-06-03T12:48:20.138Z,18.80
2018-06-03T12:50:47.895Z,21.77
2018-06-03T12:53:15.602Z,27.37
2018-06-03T12:55:43.391Z,21.83
2018-06-03T12:58:11.124Z,17.33
2018-06-03T13:00:39.783Z,18.17
2018-06-03T13:03:07.590Z,17.37
2018-06-03T13:05:35.501Z,17.13
2018-06-03T13:08:03.341Z,19.53
2018-06-03T13:10:30.981Z,16.97
2018-06-03T13:12:58.682Z,21.33
2018-06-03T13:15:26.429Z,18.47
2018-06-03T13:17:54.164Z,16.87
2018-06-03T13:20:21.905Z,28.40
2018-06-03T13:22:49.613Z,17.60
2018-06-03T13:25:17.320Z,16.63
2018-06-03T13:27:45.069Z,16.17
2018-06-03T13:30:12.679Z,16.40
2018-06-03T13:32:40.407Z,20.50
2018-06-03T13:35:08.140Z,27.17
2018-06-03T13:37:35.945Z,17.10
2018-06-03T13:40:03.531Z,19.37
2018-06-03T13:42:31.259Z,19.63
2018-06-03T13:44:59.004Z,30.27
2018-06-03T13:47:26.587Z,18.83
2018-06-03T13:49:54.360Z,19.73
2018-06-03T13:52:22.191Z,21.33
2018-06-03T13:54:49.872Z,25.07
2018-06-03T13:57:17.623Z,29.83
2018-06-03T13:59:45.281Z,19.83
2018-06-03T14:02:13.041Z,18.70
2018-06-03T14:04:40.789Z,19.77
2018-06-03T14:07:08.599Z,20.60
2018-06-03T14:09:36.379Z,19.30
2018-06-03T14:12:04.220Z,20.10
2018-06-03T14:14:32.076Z,24.07
2018-06-03T14:16:59.869Z,20.13
2018-06-03T14:19:27.757Z,23.77
2018-06-03T14:21:55.489Z,19.33
2018-06-03T14:24:23.304Z,21.10
2018-06-03T14:26:51.151Z,19.50
2018-06-03T14:29:18.928Z,23.03
2018-06-03T14:31:46.672Z,20.23
2018-06-03T14:34:14.496Z,20.67
2018-06-03T14:36:42.255Z,20.07
2018-06-03T14:39:09.916Z,19.77
2018-06-03T14:41:37.715Z,19.83
2018-06-03T14:44:05.579Z,21.70
2018-06-03T14:46:33.388Z,19.10
2018-06-03T14:49:01.182Z,19.73
2018-06-03T14:51:29.325Z,22.23
2018-06-03T14:53:57.155Z,20.67
2018-06-03T14:56:24.922Z,20.63
2018-06-03T14:58:52.752Z,17.87
2018-06-03T15:01:20.548Z,20.97
2018-06-03T15:03:48.271Z,25.50
2018-06-03T15:06:16.170Z,21.77
2018-06-03T15:08:43.927Z,21.63
2018-06-03T15:11:11.692Z,21.70
2018-06-03T15:13:40.008Z,19.47
2018-06-03T15:16:07.808Z,19.03
2018-06-03T15:18:36.115Z,19.00
2018-06-03T15:21:03.971Z,21.70
2018-06-03T15:23:31.770Z,20.53
2018-06-03T15:25:59.621Z,18.87
2018-06-03T15:28:27.464Z,24.27
2018-06-03T15:30:55.090Z,20.63
2018-06-03T15:33:22.922Z,20.50
2018-06-03T15:35:50.752Z,20.57
2018-06-03T15:38:18.394Z,19.17
2018-06-03T15:40:46.188Z,21.47
2018-06-03T15:43:14.041Z,21.23
2018-06-03T15:45:41.833Z,20.50
2018-06-03T15:48:09.652Z,21.13
2018-06-03T15:50:37.814Z,21.73
2018-06-03T15:53:05.636Z,20.97
2018-06-03T15:55:33.271Z,22.10
2018-06-03T15:58:00.959Z,19.87
2018-06-03T16:00:28.644Z,20.17
2018-06-03T16:02:56.425Z,20.53
2018-06-03T16:05:24.261Z,20.27
2018-06-03T16:07:51.891Z,20.10
2018-06-03T16:10:19.709Z,19.93
2018-06-03T16:12:47.496Z,19.73
2018-06-03T16:15:15.261Z,24.10
2018-06-03T16:17:43.128Z,19.40
2018-06-03T16:20:10.924Z,20.80
2018-06-03T16:22:38.696Z,21.23
2018-06-03T16:25:06.451Z,17.23
2018-06-03T16:27:34.407Z,21.13
2018-06-03T16:30:02.281Z,18.83
2018-06-03T16:32:30.084Z,18.20
2018-06-03T16:34:57.898Z,17.30
2018-06-03T16:37:26.632Z,16.37
2018-06-03T16:39:54.461Z,17.47
2018-06-03T16:42:22.604Z,18.17
2018-06-03T16:44:50.436Z,19.63
2018-06-03T16:47:18.051Z,23.43
2018-06-03T16:49:46.456Z,22.43
2018-06-03T16:52:14.203Z,19.07
2018-06-03T16:54:41.962Z,20.07
2018-06-03T16:57:09.728Z,18.10
2018-06-03T16:59:37.585Z,19.00
2018-06-03T17:02:05.367Z,18.07
2018-06-03T17:04:33.192Z,19.37
2018-06-03T17:07:00.971Z,19.70
2018-06-03T17:09:28.757Z,19.00
2018-06-03T17:11:56.526Z,22.77
2018-06-03T17:14:24.338Z,20.43
2018-06-03T17:16:52.090Z,23.07
2018-06-03T17:19:19.808Z,23.00
2018-06-03T17:21:48.277Z,20.30
2018-06-03T17:24:16.069Z,18.23
2018-06-03T17:26:43.904Z,21.33
2018-06-03T17:29:11.668Z,21.30
2018-06-03T17:31:39.426Z,26.70
2018-06-03T17:34:07.212Z,24.17
2018-06-03T17:36:35.006Z,23.60
2018-06-03T17:39:03.183Z,25.90
2018-06-03T17:41:31.008Z,27.40
2018-06-03T17:43:58.724Z,26.47
2018-06-03T17:46:26.419Z,26.23
2018-06-03T17:48:54.137Z,23.53
2018-06-03T17:51:21.760Z,27.23
2018-06-03T17:53:49.728Z,25.23
2018-06-03T17:56:17.830Z,23.70
2018-06-03T17:58:45.605Z,21.80
2018-06-03T18:01:13.333Z,21.77
2018-06-03T18:03:41.072Z,22.20
2018-06-03T18:06:08.868Z,22.33
2018-06-03T18:08:36.617Z,24.63
2018-06-03T18:11:04.463Z,22.87
2018-06-03T18:13:32.192Z,22.57
2018-06-03T18:15:59.955Z,24.47
2018-06-03T18:18:27.600Z,24.73
2018-06-03T18:20:55.359Z,22.60
2018-06-03T18:23:23.150Z,22.10
2018-06-03T18:25:50.900Z,24.90
2018-06-03T18:28:18.657Z,23.03
2018-06-03T18:30:46.438Z,30.23
2018-06-03T18:33:14.153Z,23.90
2018-06-03T18:35:41.948Z,22.53
2018-06-03T18:38:09.776Z,22.37
2018-06-03T18:40:37.476Z,22.30
2018-06-03T18:43:05.306Z,21.30
2018-06-03T18:45:33.555Z,22.23
2018-06-03T18:48:01.200Z,22.00
2018-06-03T18:50:28.990Z,19.53
2018-06-03T18:52:56.632Z,28.13
2018-06-03T18:55:24.466Z,23.67
2018-06-03T18:57:52.311Z,33.20
2018-06-03T19:00:20.490Z,21.53
2018-06-03T19:02:48.268Z,23.77
2018-06-03T19:05:16.048Z,22.67
2018-06-03T19:07:43.856Z,22.03
2018-06-03T19:10:11.617Z,22.70
2018-06-03T19:12:39.435Z,23.10
2018-06-03T19:15:09.065Z,24.47
2018-06-03T19:17:36.764Z,23.50
2018-06-03T19:20:04.705Z,22.27
2018-06-03T19:22:32.364Z,21.60
2018-06-03T19:25:00.021Z,23.10
2018-06-03T19:27:27.869Z,22.37
2018-06-03T19:29:55.837Z,24.97
2018-06-03T19:32:23.648Z,22.07
2018-06-03T19:34:51.961Z,22.50
2018-06-03T19:37:19.803Z,21.17
2018-06-03T19:39:47.544Z,21.83
2018-06-03T19:42:15.212Z,22.33
2018-06-03T19:44:42.829Z,24.07
2018-06-03T19:47:10.665Z,25.13
2018-06-03T19:49:38.459Z,20.33
2018-06-03T19:52:06.210Z,23.70
2018-06-03T19:54:34.019Z,24.00
2018-06-03T19:57:01.838Z,24.87
2018-06-03T19:59:29.917Z,21.60
2018-06-03T20:01:57.675Z,23.00
2018-06-03T20:04:25.425Z,21.27
2018-06-03T20:06:53.213Z,22.97
2018-06-03T20:09:21.074Z,19.30
2018-06-03T20:11:49.058Z,19.97
2018-06-03T20:14:16.822Z,22.13
2018-06-03T20:16:44.752Z,20.10
2018-06-03T20:19:12.555Z,19.80
2018-06-03T20:21:40.481Z,19.00
2018-06-03T20:24:08.396Z,20.13
2018-06-03T20:26:36.299Z,19.30
2018-06-03T20:29:04.201Z,21.43
2018-06-03T20:31:32.013Z,21.53
2018-06-03T20:34:00.102Z,21.73
2018-06-03T20:36:28.033Z,20.30
2018-06-03T20:38:55.772Z,22.27
2018-06-03T20:41:23.559Z,22.67
2018-06-03T20:43:51.362Z,21.57
2018-06-03T20:46:19.182Z,21.37
2018-06-03T20:48:46.995Z,21.17
2018-06-03T20:51:14.784Z,20.10
2018-06-03T20:53:42.652Z,23.00
2018-06-03T20:56:10.387Z,23.03
2018-06-03T20:58:38.050Z,19.00
2018-06-03T21:01:05.714Z,21.10
2018-06-03T21:03:33.503Z,20.70
2018-06-03T21:06:01.589Z,19.37
2018-06-03T21:08:29.415Z,18.60
2018-06-03T21:10:57.248Z,19.73
2018-06-03T21:13:25.029Z,20.60
2018-06-03T21:15:52.771Z,19.70
2018-06-03T21:18:20.612Z,19.77
2018-06-03T21:20:48.456Z,17.53
2018-06-03T21:23:16.139Z,20.13
2018-06-03T21:25:43.985Z,18.93
2018-06-03T21:28:11.797Z,20.33
2018-06-03T21:30:39.584Z,20.27
2018-06-03T21:33:07.398Z,19.13
2018-06-03T21:35:35.220Z,19.70
2018-06-03T21:38:03.029Z,20.70
2018-06-03T21:40:30.821Z,21.67
2018-06-03T21:42:58.676Z,19.37
2018-06-03T21:45:26.549Z,20.20
2018-06-03T21:47:54.452Z,18.83
2018-06-03T21:50:22.336Z,20.37
2018-06-03T21:52:50.164Z,19.70
2018-06-03T21:55:18.016Z,19.27
2018-06-03T21:57:45.984Z,23.00
2018-06-03T22:00:13.819Z,21.27
2018-06-03T22:02:41.710Z,20.23
2018-06-03T22:05:10.476Z,23.80
2018-06-03T22:07:38.324Z,19.33
2018-06-03T22:10:06.112Z,16.83
2018-06-03T22:12:34.368Z,18.37
2018-06-03T22:15:02.332Z,20.97
2018-06-03T22:17:30.144Z,18.27
2018-06-03T22:19:57.956Z,19.23
2018-06-03T22:22:25.785Z,20.13
2018-06-03T22:24:53.701Z,19.90
2018-06-03T22:27:21.524Z,21.47
2018-06-03T22:29:49.604Z,20.10
2018-06-03T22:32:17.377Z,19.20
2018-06-03T22:34:45.295Z,18.23
2018-06-03T22:37:13.169Z,19.17
2018-06-03T22:39:41.040Z,21.67
2018-06-03T22:42:08.849Z,18.50
2018-06-03T22:44:36.671Z,21.13
2018-06-03T22:47:04.513Z,18.63
2018-06-03T22:49:33.255Z,18.53
2018-06-03T22:52:01.089Z,19.03
2018-06-03T22:54:28.964Z,22.50
2018-06-03T22:58:03.457Z,18.57
2018-06-03T23:00:32.466Z,19.57
2018-06-03T23:03:06.129Z,18.40
2018-06-03T23:05:34.074Z,19.80
2018-06-03T23:08:01.896Z,20.73
2018-06-03T23:10:29.580Z,18.23
2018-06-03T23:12:57.418Z,18.60
2018-06-03T23:15:25.244Z,19.40
2018-06-03T23:17:53.090Z,24.40
2018-06-03T23:20:20.882Z,18.57
2018-06-03T23:22:48.720Z,18.50
2018-06-03T23:25:16.520Z,18.83
2018-06-03T23:27:44.346Z,20.37
2018-06-03T23:30:12.154Z,19.17
2018-06-03T23:32:39.948Z,19.93
2018-06-03T23:35:07.644Z,22.10
2018-06-03T23:37:35.459Z,20.97
2018-06-03T23:40:03.420Z,17.77
2018-06-03T23:42:31.419Z,22.53
2018-06-03T23:44:59.059Z,25.67
2018-06-03T23:47:26.865Z,19.13
2018-06-03T23:49:54.624Z,20.60
2018-06-03T23:52:22.397Z,24.00
2018-06-03T23:54:50.175Z,23.20
2018-06-03T23:57:18.002Z,20.23
2018-06-03T23:59:46.783Z,20.13
